Time;durP1;ratioP1;P1;durP2;ratioP2;P2;SDS_P1;SDS_P2;PMS_P1;PMS_P2;Temp;Humidity;BMP_temperature;BMP_pressure;BME280_temperature;BME280_humidity;BME280_pressure;Samples;Min_cycle;Max_cycle;Signal;HPM_P1;HPM_P2
2022/01/14 00:01:44;;;;;;;140.88;75.68;;;0.10;2201.60;;;;;;4995012;28;20046;-73
2022/01/14 00:04:10;;;;;;;143.88;79.75;;;0.00;2201.60;;;;;;5010559;28;20121;-72
2022/01/14 00:06:37;;;;;;;151.05;79.35;;;0.00;2201.60;;;;;;5012696;28;20942;-72
2022/01/14 00:09:06;;;;;;;129.10;71.18;;;0.10;2201.60;;;;;;4989333;28;20120;-73
2022/01/14 00:11:34;;;;;;;125.32;68.93;;;0.10;2201.60;;;;;;4993215;28;20520;-75
2022/01/14 00:14:20;;;;;;;125.50;67.07;;;0.10;2201.60;;;;;;4997515;28;20041;-75
2022/01/14 00:16:48;;;;;;;174.52;84.88;;;0.10;2201.60;;;;;;5012502;28;20053;-74
2022/01/14 00:19:14;;;;;;;177.23;89.60;;;0.10;2201.60;;;;;;4993957;28;20508;-73
2022/01/14 00:21:42;;;;;;;124.32;66.68;;;0.10;2201.60;;;;;;5012435;28;20034;-73
2022/01/14 00:32:25;;;;;;;117.78;67.20;;;0.00;2201.60;;;;;;5011970;28;20068;-72
2022/01/14 00:34:51;;;;;;;;;;;0.10;2201.60;;;;;;4992837;28;20046;-73
2022/01/14 00:37:17;;;;;;;146.23;77.33;;;0.10;2201.60;;;;;;5011169;28;19916;-72
2022/01/14 00:39:43;;;;;;;147.73;78.53;;;0.10;2201.60;;;;;;4994669;28;20048;-73
2022/01/14 00:42:11;;;;;;;121.18;65.32;;;0.10;2201.60;;;;;;5011588;28;20061;-72
2022/01/14 00:44:37;;;;;;;108.88;59.63;;;0.20;2201.60;;;;;;5011781;28;20365;-72
2022/01/14 00:47:04;;;;;;;120.97;61.25;;;0.20;2201.60;;;;;;5013208;28;20137;-72
2022/01/14 00:49:30;;;;;;;131.65;68.20;;;0.20;2201.60;;;;;;4995046;28;20042;-72
2022/01/14 00:51:57;;;;;;;117.07;66.05;;;0.20;2201.60;;;;;;5013342;28;20038;-72
2022/01/14 00:54:24;;;;;;;124.40;68.85;;;0.20;2201.60;;;;;;5012661;28;20094;-72
2022/01/14 00:57:13;;;;;;;112.07;60.42;;;0.20;2201.60;;;;;;5013151;28;20034;-75
2022/01/14 00:59:36;;;;;;;104.93;60.55;;;0.20;2201.60;;;;;;5011440;28;20369;-73
2022/01/14 01:02:02;;;;;;;110.70;58.92;;;0.20;2201.60;;;;;;5011879;28;20048;-73
2022/01/14 01:04:34;;;;;;;119.80;66.00;;;0.20;2201.60;;;;;;4987133;28;20109;-73
2022/01/14 01:07:03;;;;;;;138.85;66.90;;;0.20;2201.60;;;;;;5012668;28;20434;-75
2022/01/14 01:09:30;;;;;;;132.13;67.63;;;0.20;2201.60;;;;;;5008954;28;20034;-74
2022/01/14 01:12:16;;;;;;;166.02;88.60;;;0.30;2201.60;;;;;;5012570;28;20066;-74
2022/01/14 01:14:52;;;;;;;151.02;76.20;;;0.30;2201.60;;;;;;4995204;28;20133;-73
2022/01/14 01:17:18;;;;;;;131.55;71.93;;;0.40;2201.60;;;;;;4995706;28;20057;-73
2022/01/14 01:19:45;;;;;;;110.38;64.32;;;0.50;2201.60;;;;;;5012615;28;20097;-74
2022/01/14 01:22:11;;;;;;;146.20;74.30;;;0.60;2201.60;;;;;;4995294;28;20038;-73
2022/01/14 01:24:37;;;;;;;191.43;88.88;;;0.60;2201.60;;;;;;4994768;28;20041;-73
2022/01/14 01:27:08;;;;;;;110.80;58.58;;;0.50;2201.60;;;;;;4994564;28;20037;-74
2022/01/14 01:32:05;;;;;;;119.15;58.47;;;0.70;2201.60;;;;;;5011791;28;20504;-74
2022/01/14 01:34:31;;;;;;;111.10;55.92;;;0.70;2201.60;;;;;;4991640;28;20041;-74
2022/01/14 01:36:58;;;;;;;102.90;53.97;;;0.60;2201.60;;;;;;5012057;28;20038;-74
2022/01/14 01:39:29;;;;;;;92.95;52.00;;;0.60;2201.60;;;;;;4994581;28;20464;-74
2022/01/14 01:41:58;;;;;;;214.27;90.28;;;0.70;2201.60;;;;;;5011527;28;20109;-74
2022/01/14 01:44:25;;;;;;;133.10;65.88;;;0.60;2201.60;;;;;;5011804;28;20030;-74
2022/01/14 01:46:52;;;;;;;226.05;113.65;;;0.60;2201.60;;;;;;4994731;28;20042;-73
2022/01/14 01:49:28;;;;;;;113.15;59.92;;;0.60;2201.60;;;;;;4993753;28;20432;-73
2022/01/14 01:51:54;;;;;;;177.70;94.65;;;0.70;2201.60;;;;;;5011335;28;20068;-75
2022/01/14 01:54:21;;;;;;;117.57;62.10;;;0.70;2201.60;;;;;;5011912;28;20041;-73
2022/01/14 01:56:49;;;;;;;155.55;81.80;;;0.70;2201.60;;;;;;4994532;28;20049;-73
2022/01/14 01:59:16;;;;;;;94.03;50.78;;;0.80;2201.60;;;;;;4994493;28;20041;-74
2022/01/14 02:01:42;;;;;;;197.60;103.28;;;0.80;2201.60;;;;;;5011466;28;20089;-74
2022/01/14 02:04:07;;;;;;;177.27;89.30;;;0.80;2201.60;;;;;;5010209;28;20030;-75
2022/01/14 02:06:37;;;;;;;147.90;70.45;;;0.80;2201.60;;;;;;5011850;28;20034;-74
2022/01/14 02:09:04;;;;;;;112.43;59.97;;;0.80;2201.60;;;;;;4994531;28;20116;-73
2022/01/14 02:11:30;;;;;;;129.52;66.38;;;0.80;2201.60;;;;;;4993621;28;20084;-75
2022/01/14 02:13:59;;;;;;;141.63;71.55;;;0.80;2201.60;;;;;;5011911;28;20488;-74
2022/01/14 02:16:47;;;;;;;107.88;55.08;;;0.90;2201.60;;;;;;5007467;28;20040;-74
2022/01/14 02:19:31;;;;;;;90.72;47.63;;;0.80;2201.60;;;;;;5003645;28;20034;-74
2022/01/14 02:22:13;;;;;;;112.68;63.78;;;0.90;2201.60;;;;;;4994304;28;20034;-73
2022/01/14 02:27:09;;;;;;;79.75;45.30;;;0.80;2201.60;;;;;;5011580;28;20066;-73
2022/01/14 02:29:35;;;;;;;73.70;38.53;;;0.80;2201.60;;;;;;5011696;28;20084;-73
2022/01/14 02:32:01;;;;;;;62.03;37.95;;;0.80;2201.60;;;;;;4993605;28;20034;-74
2022/01/14 02:34:27;;;;;;;75.53;39.20;;;0.80;2201.60;;;;;;5011962;28;20041;-75
2022/01/14 02:36:53;;;;;;;67.72;40.20;;;0.80;2201.60;;;;;;4994258;28;20042;-75
2022/01/14 02:39:21;;;;;;;88.93;51.13;;;0.80;2201.60;;;;;;5012292;28;20034;-74
2022/01/14 02:41:50;;;;;;;72.38;43.97;;;0.80;2201.60;;;;;;4993416;28;20033;-74
2022/01/14 02:44:24;;;;;;;83.95;44.80;;;0.80;2201.60;;;;;;4993895;28;20429;-74
2022/01/14 02:46:57;;;;;;;82.85;47.38;;;0.80;2201.60;;;;;;5011986;28;20030;-74
2022/01/14 02:49:27;;;;;;;79.75;49.00;;;0.80;2201.60;;;;;;5011622;28;20026;-74
2022/01/14 02:51:53;;;;;;;88.38;51.45;;;0.70;2201.60;;;;;;5011906;28;20037;-75
2022/01/14 02:54:25;;;;;;;88.97;44.47;;;0.70;2201.60;;;;;;4993667;28;20124;-75
2022/01/14 02:56:55;;;;;;;85.18;47.80;;;0.60;2201.60;;;;;;4994018;28;20038;-74
2022/01/14 02:59:22;;;;;;;78.80;44.03;;;0.60;2201.60;;;;;;5012011;28;20030;-74
2022/01/14 03:01:49;;;;;;;90.90;48.63;;;0.50;2201.60;;;;;;5010199;28;20500;-74
2022/01/14 03:04:17;;;;;;;83.18;42.28;;;0.50;2201.60;;;;;;5013611;28;20049;-74
2022/01/14 03:06:44;;;;;;;90.05;50.80;;;0.50;2201.60;;;;;;4996777;28;20030;-74
2022/01/14 03:09:10;;;;;;;85.93;46.80;;;0.50;2201.60;;;;;;4997579;28;20034;-74
2022/01/14 03:11:39;;;;;;;95.35;50.45;;;0.50;2201.60;;;;;;5015196;28;20029;-74
2022/01/14 03:14:06;;;;;;;83.15;43.10;;;0.40;2201.60;;;;;;5015088;28;20030;-74
2022/01/14 03:16:39;;;;;;;87.85;45.95;;;0.40;2201.60;;;;;;5014891;28;20041;-74
2022/01/14 03:19:10;;;;;;;76.78;43.67;;;0.40;2201.60;;;;;;5014875;28;20026;-73
2022/01/14 03:21:42;;;;;;;73.20;44.60;;;0.40;2201.60;;;;;;4996944;28;20072;-74
2022/01/14 03:24:22;;;;;;;88.35;49.75;;;0.40;2201.60;;;;;;5014806;28;20030;-74
2022/01/14 03:26:50;;;;;;;83.10;47.00;;;0.40;2201.60;;;;;;4995219;28;20501;-74
2022/01/14 03:29:18;;;;;;;81.10;47.03;;;0.30;2201.60;;;;;;4995405;28;20042;-74
2022/01/14 03:31:45;;;;;;;89.50;47.95;;;0.30;2201.60;;;;;;4977108;28;20388;-74
2022/01/14 03:34:11;;;;;;;91.13;47.85;;;0.20;2201.60;;;;;;4995263;28;20084;-74
2022/01/14 03:36:37;;;;;;;80.43;44.80;;;0.20;2201.60;;;;;;4993686;28;20026;-74
2022/01/14 03:39:03;;;;;;;84.50;47.00;;;0.10;2201.60;;;;;;4995291;28;20043;-74
2022/01/14 03:41:29;;;;;;;87.40;45.35;;;0.00;2201.60;;;;;;4993729;28;20486;-74
2022/01/14 03:43:55;;;;;;;88.63;47.38;;;0.00;2201.60;;;;;;4995332;28;20037;-74
2022/01/14 03:46:21;;;;;;;96.82;48.42;;;0.00;2201.60;;;;;;5009977;28;20037;-74
2022/01/14 03:48:47;;;;;;;98.03;47.35;;;12.90;2201.60;;;;;;5001909;28;20599;-73
2022/01/14 03:51:13;;;;;;;82.78;46.90;;;12.90;2201.60;;;;;;4996414;28;20117;-73
2022/01/14 03:53:39;;;;;;;91.07;47.80;;;12.90;2201.60;;;;;;5012452;28;20076;-73
2022/01/14 03:56:05;;;;;;;87.63;47.40;;;12.90;2201.60;;;;;;5013891;28;20149;-73
2022/01/14 03:58:31;;;;;;;89.30;48.40;;;12.90;2201.60;;;;;;5012571;28;20517;-73
2022/01/14 04:00:57;;;;;;;91.57;48.90;;;13.00;2201.60;;;;;;5011912;28;20037;-74
2022/01/14 04:03:23;;;;;;;91.88;48.85;;;13.00;2201.60;;;;;;4994889;28;20125;-73
2022/01/14 04:05:49;;;;;;;96.05;49.80;;;13.10;2201.60;;;;;;4995371;28;20088;-74
2022/01/14 04:08:15;;;;;;;94.35;50.90;;;13.10;2201.60;;;;;;5012997;28;20041;-74
2022/01/14 04:10:41;;;;;;;91.13;54.20;;;13.10;2201.60;;;;;;5013736;28;20030;-76
2022/01/14 04:13:17;;;;;;;91.65;45.65;;;13.10;2201.60;;;;;;4996000;28;20045;-76
2022/01/14 04:15:45;;;;;;;93.45;51.20;;;13.10;2201.60;;;;;;5012997;28;20033;-75
2022/01/14 04:18:20;;;;;;;91.65;48.30;;;13.10;2201.60;;;;;;4996261;28;20061;-75
2022/01/14 04:20:50;;;;;;;91.20;49.80;;;13.10;2201.60;;;;;;4995913;28;20456;-75
2022/01/14 04:23:18;;;;;;;77.97;46.90;;;13.10;2201.60;;;;;;5012807;28;20080;-75
2022/01/14 04:25:45;;;;;;;82.18;47.83;;;13.00;2201.60;;;;;;5012337;28;20093;-75
2022/01/14 04:28:11;;;;;;;90.03;52.70;;;13.20;2201.60;;;;;;5012166;28;20034;-75
2022/01/14 04:30:37;;;;;;;94.35;49.80;;;13.10;2201.60;;;;;;4995030;28;20034;-75
2022/01/14 04:33:04;;;;;;;82.20;44.97;;;13.20;2201.60;;;;;;4993953;28;20041;-74
2022/01/14 04:35:31;;;;;;;88.63;46.38;;;13.20;2201.60;;;;;;4994422;28;20042;-75
2022/01/14 04:37:57;;;;;;;104.72;51.30;;;13.20;2201.60;;;;;;5011971;28;20030;-74
2022/01/14 04:40:23;;;;;;;90.45;49.60;;;13.20;2201.60;;;;;;5012777;28;20492;-74
2022/01/14 04:42:49;;;;;;;94.47;53.20;;;13.30;2201.60;;;;;;4993552;28;20076;-73
2022/01/14 04:45:29;;;;;;;87.80;44.67;;;13.30;2201.60;;;;;;5012886;28;20100;-74
2022/01/14 04:47:56;;;;;;;93.68;50.35;;;13.30;2201.60;;;;;;5012059;28;20568;-74
2022/01/14 04:50:24;;;;;;;95.07;49.55;;;13.40;2201.60;;;;;;5012923;28;20036;-74
2022/01/14 04:52:50;;;;;;;85.25;44.33;;;13.40;2201.60;;;;;;5013227;28;20520;-73
2022/01/14 04:55:21;;;;;;;96.38;45.38;;;13.40;2201.60;;;;;;4994980;28;20049;-74
2022/01/14 04:57:47;;;;;;;90.68;48.38;;;13.30;2201.60;;;;;;5012710;28;20038;-74
2022/01/14 05:00:16;;;;;;;93.85;48.47;;;13.40;2201.60;;;;;;4994331;28;20041;-74
2022/01/14 05:02:42;;;;;;;91.80;48.35;;;13.40;2201.60;;;;;;4994990;28;20060;-74
2022/01/14 05:05:09;;;;;;;102.68;50.40;;;13.40;2201.60;;;;;;5012795;28;20091;-74
2022/01/14 05:07:35;;;;;;;93.95;47.72;;;13.40;2201.60;;;;;;4993600;28;20026;-73
2022/01/14 05:12:29;;;;;;;86.68;43.72;;;13.50;2201.60;;;;;;5011783;28;20123;-74
2022/01/14 05:14:55;;;;;;;84.22;44.95;;;13.50;2201.60;;;;;;5011580;28;20030;-74
2022/01/14 05:17:21;;;;;;;84.22;46.08;;;13.40;2201.60;;;;;;4993186;28;20722;-74
2022/01/14 05:19:47;;;;;;;83.38;47.22;;;13.40;2201.60;;;;;;5011348;28;20405;-76
2022/01/14 05:22:13;;;;;;;78.38;43.33;;;13.50;2201.60;;;;;;5011208;28;20038;-73
2022/01/14 05:24:38;;;;;;;89.38;49.22;;;13.50;2201.60;;;;;;4993827;28;20041;-73
2022/01/14 05:27:04;;;;;;;83.10;43.33;;;13.50;2201.60;;;;;;5010289;28;20042;-73
2022/01/14 05:29:30;;;;;;;89.85;45.30;;;13.40;2201.60;;;;;;5011020;28;20034;-73
2022/01/14 05:32:03;;;;;;;115.55;57.45;;;13.50;2201.60;;;;;;5012321;28;20026;-74
2022/01/14 05:34:31;;;;;;;112.22;52.78;;;13.50;2201.60;;;;;;4994948;28;20088;-73
2022/01/14 05:36:57;;;;;;;164.43;78.10;;;13.50;2201.60;;;;;;5012937;28;20026;-73
2022/01/14 05:39:23;;;;;;;121.68;55.47;;;13.50;2201.60;;;;;;4994952;28;20092;-73
2022/01/14 05:41:50;;;;;;;288.45;120.95;;;13.50;2201.60;;;;;;4994751;28;20300;-73
2022/01/14 05:44:16;;;;;;;134.63;64.35;;;13.50;2201.60;;;;;;5012241;28;20484;-73
2022/01/14 05:46:42;;;;;;;180.68;83.30;;;13.50;2201.60;;;;;;5012580;28;20068;-74
2022/01/14 05:49:07;;;;;;;120.20;57.25;;;13.50;2201.60;;;;;;5012116;28;20470;-73
2022/01/14 05:51:33;;;;;;;94.07;48.65;;;13.50;2201.60;;;;;;5012615;28;20034;-73
2022/01/14 05:53:59;;;;;;;116.50;61.33;;;13.50;2201.60;;;;;;4994532;28;20464;-73
2022/01/14 05:56:25;;;;;;;144.43;67.70;;;13.50;2201.60;;;;;;4994570;28;20042;-73
2022/01/14 05:58:51;;;;;;;127.85;60.35;;;13.40;2201.60;;;;;;5012262;28;20390;-73
2022/01/14 06:01:16;;;;;;;126.45;61.38;;;13.40;2201.60;;;;;;5011870;28;20100;-73
2022/01/14 06:03:42;;;;;;;132.40;64.38;;;13.40;2201.60;;;;;;4994281;28;20546;-74
2022/01/14 06:06:08;;;;;;;175.70;90.65;;;13.30;2201.60;;;;;;4994500;28;20448;-73
2022/01/14 06:08:34;;;;;;;182.43;79.32;;;13.30;2201.60;;;;;;5011971;28;20552;-75
2022/01/14 06:10:59;;;;;;;150.13;75.07;;;13.30;2201.60;;;;;;4994076;28;20077;-74
2022/01/14 06:13:25;;;;;;;124.00;62.40;;;13.30;2201.60;;;;;;5011505;28;20484;-74
2022/01/14 06:15:51;;;;;;;109.43;54.33;;;13.20;2201.60;;;;;;5010937;28;20049;-74
2022/01/14 06:18:17;;;;;;;92.18;53.25;;;13.20;2201.60;;;;;;5010928;28;20192;-74
2022/01/14 06:20:42;;;;;;;100.50;49.83;;;13.20;2201.60;;;;;;5011875;28;20038;-74
2022/01/14 06:23:08;;;;;;;132.30;66.93;;;13.20;2201.60;;;;;;4994273;28;20037;-74
2022/01/14 06:25:34;;;;;;;103.60;55.83;;;13.20;2201.60;;;;;;4994482;28;20030;-74
2022/01/14 06:28:00;;;;;;;93.90;49.72;;;13.20;2201.60;;;;;;4994360;28;20126;-74
2022/01/14 06:30:26;;;;;;;99.20;49.60;;;13.20;2201.60;;;;;;5012096;28;20085;-74
2022/01/14 06:32:53;;;;;;;78.05;39.20;;;13.20;2201.60;;;;;;5010359;28;20444;-73
2022/01/14 06:35:19;;;;;;;76.40;42.17;;;13.10;2201.60;;;;;;5012150;28;20040;-74
2022/01/14 06:37:45;;;;;;;63.33;35.42;;;13.10;2201.60;;;;;;5013039;28;20034;-75
2022/01/14 06:40:11;;;;;;;65.53;32.85;;;13.00;2201.60;;;;;;4998546;28;20045;-74
2022/01/14 06:42:37;;;;;;;70.05;35.33;;;13.00;2201.60;;;;;;5015548;28;20038;-74
2022/01/14 06:45:07;;;;;;;61.80;35.53;;;12.90;2201.60;;;;;;5015993;28;20122;-74
2022/01/14 06:47:33;;;;;;;68.90;38.60;;;12.90;2201.60;;;;;;4997807;28;20054;-75
2022/01/14 06:49:59;;;;;;;66.13;37.13;;;12.90;2201.60;;;;;;4997983;28;20444;-74
2022/01/14 06:52:25;;;;;;;62.17;35.05;;;12.90;2201.60;;;;;;4997458;28;20034;-74
2022/01/14 06:54:50;;;;;;;74.75;41.00;;;0.00;2201.60;;;;;;4997310;28;20049;-75
2022/01/14 06:57:17;;;;;;;64.93;32.92;;;0.00;2201.60;;;;;;5015704;28;20555;-75
2022/01/14 06:59:42;;;;;;;67.53;36.53;;;0.00;2201.60;;;;;;4997787;28;20042;-74
2022/01/14 07:02:10;;;;;;;69.78;37.78;;;0.00;2201.60;;;;;;4997123;28;20092;-74
2022/01/14 07:04:36;;;;;;;65.47;39.55;;;0.10;2201.60;;;;;;4996962;28;20443;-74
2022/01/14 07:07:03;;;;;;;67.63;39.97;;;0.10;2201.60;;;;;;4997361;28;20125;-74
2022/01/14 07:09:30;;;;;;;70.72;39.75;;;0.10;2201.60;;;;;;4997507;28;20048;-74
2022/01/14 07:11:58;;;;;;;80.00;43.13;;;0.10;2201.60;;;;;;4997301;28;20030;-74
2022/01/14 07:14:25;;;;;;;72.88;40.10;;;0.10;2201.60;;;;;;4997848;28;20030;-74
2022/01/14 07:16:51;;;;;;;80.50;41.08;;;0.10;2201.60;;;;;;5014930;28;20026;-75
2022/01/14 07:19:20;;;;;;;71.78;39.28;;;0.30;2201.60;;;;;;5013971;28;20033;-74
2022/01/14 07:21:46;;;;;;;70.88;40.75;;;0.20;2201.60;;;;;;4997368;28;20025;-74
2022/01/14 07:24:13;;;;;;;71.72;40.25;;;0.20;2201.60;;;;;;4997363;28;20081;-73
2022/01/14 07:26:40;;;;;;;79.03;40.42;;;0.20;2201.60;;;;;;4997666;28;20092;-74
2022/01/14 07:29:06;;;;;;;73.93;39.65;;;0.30;2201.60;;;;;;4997598;28;20385;-73
2022/01/14 07:31:32;;;;;;;66.10;37.17;;;0.30;2201.60;;;;;;4997299;28;20030;-75
2022/01/14 07:33:58;;;;;;;66.78;39.33;;;0.30;2201.60;;;;;;4999808;28;20359;-75
2022/01/14 07:36:24;;;;;;;69.50;36.97;;;0.40;2201.60;;;;;;4995348;28;20101;-73
2022/01/14 07:38:50;;;;;;;72.78;37.78;;;0.40;2201.60;;;;;;4994970;28;20026;-74
2022/01/14 07:41:16;;;;;;;109.00;59.53;;;0.50;2201.60;;;;;;4995298;28;20042;-74
2022/01/14 07:43:48;;;;;;;63.78;38.00;;;0.60;2201.60;;;;;;4993747;28;20065;-73
2022/01/14 07:46:15;;;;;;;67.10;35.78;;;0.60;2201.60;;;;;;4993967;28;20026;-74
2022/01/14 07:48:41;;;;;;;62.33;38.38;;;0.60;2201.60;;;;;;4994587;28;20030;-74
2022/01/14 07:51:08;;;;;;;69.70;41.33;;;0.70;2201.60;;;;;;5009931;28;20445;-73
2022/01/14 07:53:34;;;;;;;80.65;45.38;;;0.80;2201.60;;;;;;5009619;28;20038;-75
2022/01/14 07:56:00;;;;;;;72.63;40.33;;;0.80;2201.60;;;;;;5010337;28;20045;-75
2022/01/14 07:58:26;;;;;;;64.32;38.78;;;0.90;2201.60;;;;;;5012919;28;20046;-75
2022/01/14 08:00:52;;;;;;;64.10;37.70;;;25.60;2201.60;;;;;;4995223;28;20041;-75
2022/01/14 08:03:18;;;;;;;76.60;39.83;;;25.60;2201.60;;;;;;4996299;28;20042;-75
2022/01/14 08:05:45;;;;;;;66.70;39.28;;;25.70;2201.60;;;;;;5012785;28;20041;-75
2022/01/14 08:08:10;;;;;;;63.33;38.25;;;25.80;2201.60;;;;;;5014060;28;20053;-75
2022/01/14 08:10:36;;;;;;;61.70;35.95;;;25.80;2201.60;;;;;;4996037;28;20034;-75
2022/01/14 08:13:02;;;;;;;55.00;29.40;;;25.80;2201.60;;;;;;5014153;28;20088;-75
2022/01/14 08:15:28;;;;;;;68.18;37.00;;;25.90;2201.60;;;;;;5013868;28;20080;-74
2022/01/14 08:17:54;;;;;;;59.55;31.77;;;26.00;2201.60;;;;;;5014185;28;20030;-74
2022/01/14 08:20:21;;;;;;;52.97;30.77;;;26.10;2201.60;;;;;;4995803;28;20045;-75
2022/01/14 08:22:47;;;;;;;59.00;32.80;;;26.10;2201.60;;;;;;5013825;28;20084;-74
2022/01/14 08:25:13;;;;;;;51.83;32.08;;;26.10;2201.60;;;;;;4995539;28;20065;-75
2022/01/14 08:27:38;;;;;;;49.25;29.42;;;26.20;2201.60;;;;;;4996123;28;20077;-74
2022/01/14 08:30:06;;;;;;;61.28;33.88;;;26.20;2201.60;;;;;;4995979;28;20042;-74
2022/01/14 08:32:32;;;;;;;58.08;31.10;;;26.30;2201.60;;;;;;5012994;28;20036;-75
2022/01/14 08:34:58;;;;;;;56.97;31.33;;;26.40;2201.60;;;;;;5013435;28;20397;-74
2022/01/14 08:37:24;;;;;;;54.53;32.60;;;26.40;2201.60;;;;;;4995324;28;20041;-74
2022/01/14 08:39:50;;;;;;;50.35;29.83;;;26.50;2201.60;;;;;;4995520;28;20029;-75
2022/01/14 08:42:17;;;;;;;53.35;31.33;;;51.20;2227.20;;;;;;5012690;28;20088;-74
2022/01/14 08:44:43;;;;;;;52.10;29.13;;;51.30;2227.20;;;;;;4995005;28;20030;-75
2022/01/14 08:47:10;;;;;;;50.95;28.38;;;51.30;2227.20;;;;;;5005016;28;20061;-74
2022/01/14 08:49:40;;;;;;;52.58;30.50;;;51.30;2227.20;;;;;;5012353;28;20088;-75
2022/01/14 08:52:11;;;;;;;53.22;29.75;;;51.40;2227.20;;;;;;4995615;28;20041;-75
2022/01/14 08:54:37;;;;;;;56.25;29.40;;;51.60;2227.20;;;;;;4996243;28;20034;-75
2022/01/14 08:57:04;;;;;;;55.97;31.35;;;51.70;2227.20;;;;;;5013540;28;20038;-76
2022/01/14 08:59:31;;;;;;;55.95;29.83;;;51.90;2227.20;;;;;;5012785;28;20132;-76
2022/01/14 09:01:57;;;;;;;56.08;30.33;;;51.90;2227.20;;;;;;5006475;28;20050;-76
2022/01/14 09:04:23;;;;;;;50.55;32.25;;;51.90;2227.20;;;;;;4996292;28;20037;-77
2022/01/14 09:06:49;;;;;;;57.05;33.60;;;52.00;2227.20;;;;;;5000000;28;20775;-77
2022/01/14 09:09:15;;;;;;;49.10;27.13;;;52.10;2227.20;;;;;;5003984;28;20033;-77
2022/01/14 09:11:41;;;;;;;52.97;30.27;;;76.90;2227.20;;;;;;5010473;28;20038;-75
2022/01/14 09:14:07;;;;;;;42.20;24.92;;;77.00;2227.20;;;;;;4993475;28;20490;-76
2022/01/14 09:16:33;;;;;;;44.70;27.33;;;77.10;2227.20;;;;;;4995388;28;20038;-75
2022/01/14 09:18:59;;;;;;;40.58;24.25;;;77.20;2227.20;;;;;;4991883;28;20049;-76
2022/01/14 09:21:25;;;;;;;40.47;26.08;;;77.30;2227.20;;;;;;4995774;28;20402;-76
2022/01/14 09:23:54;;;;;;;42.70;24.55;;;77.60;2227.20;;;;;;4998497;28;20049;-76
2022/01/14 09:26:20;;;;;;;40.63;22.92;;;77.60;2227.20;;;;;;5001403;28;20038;-76
2022/01/14 09:28:47;;;;;;;39.75;21.90;;;77.60;2227.20;;;;;;5008785;28;20535;-76
2022/01/14 09:31:15;;;;;;;50.97;29.05;;;77.70;2227.20;;;;;;5006445;28;20031;-75
2022/01/14 09:33:41;;;;;;;51.08;29.08;;;102.40;2227.20;;;;;;5001929;28;20034;-75
2022/01/14 09:36:07;;;;;;;48.47;26.70;;;102.50;2227.20;;;;;;4999181;28;20038;-75
2022/01/14 09:38:33;;;;;;;63.55;35.15;;;102.80;2227.20;;;;;;4999761;28;20134;-76
2022/01/14 09:41:00;;;;;;;33.90;20.15;;;102.90;2227.20;;;;;;5000297;28;20124;-76
2022/01/14 09:43:26;;;;;;;38.17;23.63;;;102.90;2227.20;;;;;;4998879;28;20087;-74
2022/01/14 09:45:53;;;;;;;41.75;23.13;;;103.00;2227.20;;;;;;4979015;28;20038;-74
2022/01/14 09:48:20;;;;;;;48.67;28.98;;;103.10;2227.20;;;;;;5000534;28;20046;-75
2022/01/14 09:50:46;;;;;;;62.08;36.25;;;103.30;2227.20;;;;;;5000683;28;20476;-74
2022/01/14 09:53:14;;;;;;;63.97;41.10;;;128.00;2252.80;;;;;;4996934;28;20496;-74
2022/01/14 09:55:41;;;;;;;50.65;31.92;;;128.10;2252.80;;;;;;5010989;28;20396;-75
2022/01/14 09:58:08;;;;;;;57.50;35.90;;;128.30;2252.80;;;;;;5007407;28;20524;-74
2022/01/14 10:00:35;;;;;;;52.53;31.85;;;128.50;2252.80;;;;;;4994372;28;20049;-76
2022/01/14 10:03:16;;;;;;;48.63;30.48;;;128.60;2252.80;;;;;;5006966;28;20124;-74
2022/01/14 10:05:44;;;;;;;36.75;25.83;;;128.80;2252.80;;;;;;4995439;28;20026;-74
2022/01/14 10:08:16;;;;;;;46.63;28.25;;;128.80;2252.80;;;;;;5020306;28;20121;-75
2022/01/14 10:10:59;;;;;;;42.35;24.13;;;153.80;2252.80;;;;;;4998502;28;20033;-75
2022/01/14 10:13:31;;;;;;;32.15;16.63;;;154.00;2252.80;;;;;;4987993;28;20082;-75
2022/01/14 10:16:16;;;;;;;35.20;20.35;;;154.00;2252.80;;;;;;4988053;28;20034;-75
2022/01/14 10:18:48;;;;;;;29.70;17.80;;;154.00;2252.80;;;;;;4990541;28;20030;-74
2022/01/14 10:21:14;;;;;;;26.35;16.60;;;154.20;2252.80;;;;;;5002624;28;20038;-74
2022/01/14 10:23:45;;;;;;;29.30;18.13;;;154.30;2252.80;;;;;;4998674;28;20038;-75
2022/01/14 10:26:12;;;;;;;30.83;20.35;;;154.40;2252.80;;;;;;5003024;28;20032;-75
2022/01/14 10:28:38;;;;;;;31.52;20.65;;;154.40;2252.80;;;;;;4995649;28;20042;-76
2022/01/14 10:31:05;;;;;;;39.40;23.75;;;154.40;2252.80;;;;;;4997468;28;20100;-78
2022/01/14 10:33:32;;;;;;;42.45;23.52;;;154.40;2252.80;;;;;;4995610;28;20038;-76
2022/01/14 10:35:58;;;;;;;34.22;19.73;;;154.40;2252.80;;;;;;4998854;28;20034;-76
2022/01/14 10:38:26;;;;;;;30.83;18.30;;;179.20;2252.80;;;;;;5004112;28;20042;-76
2022/01/14 10:40:55;;;;;;;35.78;22.17;;;179.30;2252.80;;;;;;5002029;28;20417;-77
2022/01/14 10:43:22;;;;;;;33.95;20.73;;;179.40;2252.80;;;;;;5002621;28;20046;-76
2022/01/14 10:45:50;;;;;;;33.45;19.40;;;179.40;2252.80;;;;;;5001368;28;20027;-79
2022/01/14 10:48:30;;;;;;;40.33;21.50;;;179.70;2252.80;;;;;;4998881;28;20018;-78
2022/01/14 10:51:01;;;;;;;31.88;17.73;;;179.40;2252.80;;;;;;4998654;28;20022;-77
2022/01/14 10:53:43;;;;;;;33.75;17.83;;;179.40;2252.80;;;;;;4996635;28;20113;-78
2022/01/14 10:56:17;;;;;;;32.83;16.98;;;179.50;2252.80;;;;;;4992819;28;20141;-78
2022/01/14 10:58:46;;;;;;;30.30;18.80;;;179.60;2252.80;;;;;;5002999;28;20038;-78
2022/01/14 11:01:20;;;;;;;40.78;23.13;;;180.10;2252.80;;;;;;4992301;28;20032;-79
2022/01/14 11:03:52;;;;;;;29.38;17.73;;;204.80;2252.80;;;;;;4990431;28;20243;-78
2022/01/14 11:06:34;;;;;;;30.52;19.65;;;204.80;2252.80;;;;;;5008840;28;20156;-78
2022/01/14 11:09:10;;;;;;;45.05;19.60;;;180.10;2252.80;;;;;;4986507;28;20069;-78
2022/01/14 11:11:38;;;;;;;30.75;17.20;;;204.90;2252.80;;;;;;4990471;28;20033;-78
2022/01/14 11:14:06;;;;;;;34.88;18.77;;;205.10;2252.80;;;;;;5011047;28;20061;-78
2022/01/14 11:16:32;;;;;;;30.05;17.90;;;205.10;2252.80;;;;;;4992646;28;20481;-77
2022/01/14 11:19:01;;;;;;;35.15;18.42;;;205.10;2252.80;;;;;;4992857;28;20049;-78
2022/01/14 11:24:25;;;;;;;28.90;16.27;;;205.30;2252.80;;;;;;5007730;28;20041;-78
2022/01/14 11:26:58;;;;;;;28.45;16.30;;;205.60;2252.80;;;;;;5013687;28;20042;-76
2022/01/14 11:29:24;;;;;;;29.05;16.40;;;230.80;2252.80;;;;;;4991436;28;20758;-76
2022/01/14 11:31:59;;;;;;;25.30;17.90;;;230.90;2252.80;;;;;;4994254;28;20758;-76
2022/01/14 11:34:33;;;;;;;29.05;17.67;;;230.80;2252.80;;;;;;4990333;28;20042;-77
2022/01/14 11:37:02;;;;;;;28.65;18.50;;;230.80;2252.80;;;;;;5012828;28;20448;-78
2022/01/14 11:39:31;;;;;;;28.52;17.10;;;230.90;2252.80;;;;;;4997163;28;20473;-76
2022/01/14 11:42:13;;;;;;;30.67;17.35;;;230.90;2252.80;;;;;;4996334;28;20038;-78
2022/01/14 11:47:40;;;;;;;38.97;20.30;;;231.30;2252.80;;;;;;5014376;28;20041;-79
2022/01/14 11:50:28;;;;;;;30.63;18.95;;;256.10;2252.80;;;;;;5004981;28;20109;-80
2022/01/14 11:52:53;;;;;;;30.80;19.67;;;256.10;2252.80;;;;;;4917742;29;20102;-80
2022/01/14 11:55:19;;;;;;;33.40;19.45;;;256.00;2252.80;;;;;;4935311;29;20443;-79
2022/01/14 11:57:47;;;;;;;28.00;15.88;;;256.10;2252.80;;;;;;4934496;29;20052;-80
2022/01/14 12:00:27;;;;;;;26.80;17.75;;;256.40;2252.80;;;;;;4931040;29;20485;-78
2022/01/14 12:03:25;;;;;;;22.35;15.60;;;256.60;2252.80;;;;;;4936555;29;20036;-79
2022/01/14 12:06:06;;;;;;;28.25;15.20;;;256.80;2252.80;;;;;;4918629;29;20115;-75
2022/01/14 12:08:34;;;;;;;57.42;31.80;;;256.40;2252.80;;;;;;4931525;29;20059;-76
2022/01/14 12:11:06;;;;;;;21.73;14.23;;;256.90;2252.80;;;;;;4934133;29;20036;-75
2022/01/14 12:13:49;;;;;;;25.95;14.82;;;282.00;2278.40;;;;;;4936582;29;20054;-75
2022/01/14 12:19:02;;;;;;;29.83;18.50;;;282.30;2278.40;;;;;;4934136;29;20095;-79
2022/01/14 12:21:50;;;;;;;33.13;18.42;;;307.30;2304.00;;;;;;4936707;29;20044;-79
2022/01/14 12:24:18;;;;;;;27.23;17.48;;;307.30;2304.00;;;;;;4933491;29;20036;-79
2022/01/14 12:27:08;;;;;;;24.75;15.13;;;307.70;2304.00;;;;;;4935827;29;20043;-79
2022/01/14 12:29:38;;;;;;;23.42;14.98;;;307.70;2304.00;;;;;;4944456;28;20034;-78
2022/01/14 12:32:20;;;;;;;25.92;14.20;;;307.30;2304.00;;;;;;5003417;28;20038;-78
2022/01/14 12:34:48;;;;;;;26.02;15.00;;;282.30;2278.40;;;;;;5013559;28;20073;-78
2022/01/14 12:37:30;;;;;;;23.20;14.93;;;282.40;2278.40;;;;;;5013127;28;20034;-77
2022/01/14 12:39:57;;;;;;;28.98;15.90;;;307.50;2304.00;;;;;;5010895;28;20032;-77